Аэропорт: Гянджа. Гянджа

ICAO: UBBG

METAR:
2018/07/16 20:00
UBBG 162000Z 29020G30KT 9999 FEW040CB BKN083 25/13 Q1006 R30/CLRD// NOSIG 
METAR:
2018/07/16 18:03
TAF TAF UBBG 161700Z 1618/1718 28008KT 9999 FEW040CB BKN080 TX25/1712Z TN20/1702Z 
      TEMPO 1620/1704 VRB18KT -TSRA SCT030CB BKN060 
      BECMG 1708/1710 08010KT